Airfield :
LOGIN :

Register | Disclaimer

   EN    FR    IT 

 










Legend :    VFR   Marginal VFR   IFR   Intensive IFR   Very Intensive IFR
Visi :
Ceiling :
>= 8 km
>= 3000ft
5 to 8 km
1000 to 3000 ft
1500m to 5 km
500 to 1000 ft
800 to 1500m
200 to 500 ft
< 800m
< 200 ft
Symbols :   Thunderstorms  Fog  Heavy snow  Heavy precipitations  Wind > 20 kt
SIGMETs :     Misc.  Thunderstorms  Icing  Turbulence  Mountain Waves  Volcanic Ashes







- Airport Elevation : 1276 ft
- IATA code : STR


EDDS - Stuttgart

CURRENT METAR :
  • 172150Z 09004KT 020V120 9999 FEW003 16/15 Q1013

EXPIRED METARs :
  • 172120Z 09003KT 040V140 9999 -RA FEW003 16/15 Q1013
  • 172050Z 09004KT 050V120 9999 -RA FEW003 16/15 Q1014
  • 172020Z 09003KT 050V110 9999 -RA FEW004 16/15 Q1014
  • 171950Z 09005KT 9999 -RA FEW004 16/15 Q1014 NOSIG

TAF TAF EDDS
Valid from the 17 at 18:00 until the 18 at 18:00 UTC


171700Z 1718/1818 23005KT CAVOK
BECMG 1718/1720 VRB03KT
PROB30
TEMPO 1718/1722 4000 RA
BECMG 1806/1810 24008KT
No reported NOTAMs for that airfield.



MET'MAP, your aeronautical weather chart ! - Copyright ORBIFLY December 2007 - Disclaimer

ORBIFLY MET'MAP TEAM :

Programming & Development : Alexandra Zaïnal
Concept & Development : Baudouin d'Aumeries
Co-Development & Prog : Marc-Olivier Méhu
Technical & hardware support : Manuel Goepfert

Contact : metmap@orbifly.com




SOURCES & CREDITS :

   NOAA